createdAt,value
2018-03-26T00:01:24.771Z,99.90
2018-03-26T00:03:53.096Z,99.90
2018-03-26T00:06:23.244Z,99.90
2018-03-26T00:08:51.573Z,99.90
2018-03-26T00:11:19.903Z,99.90
2018-03-26T00:13:49.593Z,99.90
2018-03-26T00:16:18.699Z,99.90
2018-03-26T00:18:47.054Z,99.90
2018-03-26T00:21:16.050Z,99.90
2018-03-26T00:23:44.374Z,99.90
2018-03-26T00:26:12.714Z,99.90
2018-03-26T00:28:43.167Z,99.90
2018-03-26T00:31:11.504Z,99.90
2018-03-26T00:33:39.845Z,99.90
2018-03-26T00:36:09.245Z,99.90
2018-03-26T00:38:37.576Z,99.90
2018-03-26T00:41:07.483Z,99.90
2018-03-26T00:43:37.170Z,99.90
2018-03-26T00:46:09.430Z,99.90
2018-03-26T00:48:38.430Z,99.90
2018-03-26T00:51:06.785Z,99.90
2018-03-26T00:53:44.502Z,99.90
2018-03-26T00:56:13.598Z,99.90
2018-03-26T00:58:41.947Z,99.90
2018-03-26T01:01:11.394Z,99.90
2018-03-26T01:03:39.772Z,99.90
2018-03-26T01:06:08.140Z,99.90
2018-03-26T01:08:36.977Z,99.90
2018-03-26T01:11:06.319Z,99.90
2018-03-26T01:13:34.671Z,99.90
2018-03-26T01:16:03.225Z,99.90
2018-03-26T01:18:32.536Z,99.90
2018-03-26T01:21:00.902Z,99.90
2018-03-26T01:23:30.143Z,99.90
2018-03-26T01:25:58.502Z,99.90
2018-03-26T01:28:26.853Z,99.90
2018-03-26T01:30:56.824Z,99.90
2018-03-26T01:33:25.176Z,99.90
2018-03-26T01:35:53.551Z,99.90
2018-03-26T01:38:23.383Z,99.90
2018-03-26T01:40:52.483Z,99.90
2018-03-26T01:43:22.405Z,99.90
2018-03-26T01:45:52.021Z,99.90
2018-03-26T01:48:20.372Z,99.90
2018-03-26T01:50:48.703Z,99.90
2018-03-26T01:53:17.885Z,99.90
2018-03-26T01:55:46.281Z,99.90
2018-03-26T01:58:15.303Z,99.90
2018-03-26T02:00:45.320Z,99.90
2018-03-26T02:03:13.670Z,99.90
2018-03-26T02:05:42.781Z,99.90
2018-03-26T02:08:11.794Z,99.90
2018-03-26T02:10:40.171Z,99.90
2018-03-26T02:13:10.768Z,99.90
2018-03-26T02:15:40.501Z,99.90
2018-03-26T02:18:08.868Z,99.90
2018-03-26T02:20:37.983Z,99.90
2018-03-26T02:23:07.178Z,99.90
2018-03-26T02:25:36.285Z,99.90
2018-03-26T02:28:04.630Z,99.90
2018-03-26T02:30:34.964Z,99.90
2018-03-26T02:33:03.296Z,99.90
2018-03-26T02:35:31.648Z,99.90
2018-03-26T02:38:01.472Z,99.90
2018-03-26T02:40:30.305Z,99.90
2018-03-26T02:42:58.642Z,99.90
2018-03-26T02:45:30.625Z,99.90
2018-03-26T02:47:58.983Z,99.90
2018-03-26T02:50:27.293Z,99.90
2018-03-26T02:52:56.585Z,99.90
2018-03-26T02:55:24.935Z,99.90
2018-03-26T02:57:53.306Z,99.90
2018-03-26T03:00:21.736Z,99.90
2018-03-26T03:02:50.073Z,99.90
2018-03-26T03:05:18.418Z,99.90
2018-03-26T03:07:48.067Z,99.90
2018-03-26T03:10:16.406Z,99.90
2018-03-26T03:12:44.724Z,99.90
2018-03-26T03:15:15.788Z,99.90
2018-03-26T03:17:44.897Z,99.90
2018-03-26T03:20:13.214Z,99.90
2018-03-26T03:22:42.609Z,99.90
2018-03-26T03:25:10.944Z,99.90
2018-03-26T03:27:39.276Z,99.90
2018-03-26T03:30:08.608Z,99.90
2018-03-26T03:32:36.949Z,99.90
2018-03-26T03:35:06.034Z,99.90
2018-03-26T03:37:35.872Z,99.90
2018-03-26T03:40:04.980Z,99.90
2018-03-26T03:42:33.331Z,99.90
2018-03-26T03:45:03.294Z,99.90
2018-03-26T03:47:33.123Z,99.90
2018-03-26T03:50:01.459Z,99.90
2018-03-26T03:52:30.904Z,99.90
2018-03-26T03:54:59.229Z,99.90
2018-03-26T03:57:27.601Z,99.90
2018-03-26T03:59:57.228Z,99.90
2018-03-26T04:02:25.572Z,99.90
2018-03-26T04:04:53.982Z,99.90
2018-03-26T04:07:25.076Z,99.90
2018-03-26T04:09:53.679Z,99.90
2018-03-26T04:12:22.320Z,99.90
2018-03-26T04:14:52.444Z,99.90
2018-03-26T04:17:20.924Z,99.90
2018-03-26T04:19:50.294Z,99.90
2018-03-26T04:22:18.783Z,99.90
2018-03-26T04:24:47.980Z,99.90
2018-03-26T04:27:16.315Z,99.90
2018-03-26T04:29:44.665Z,99.90
2018-03-26T04:32:13.997Z,99.90
2018-03-26T04:34:43.088Z,99.90
2018-03-26T04:37:12.213Z,99.90
2018-03-26T04:39:41.676Z,99.90
2018-03-26T04:42:10.046Z,99.90
2018-03-26T04:44:38.391Z,99.90
2018-03-26T04:47:08.840Z,99.90
2018-03-26T04:49:38.383Z,99.90
2018-03-26T04:52:06.718Z,99.90
2018-03-26T04:54:35.899Z,99.90
2018-03-26T04:57:05.051Z,99.90
2018-03-26T04:59:33.442Z,99.90
2018-03-26T05:02:03.631Z,99.90
2018-03-26T05:04:32.013Z,99.90
2018-03-26T05:07:01.224Z,99.90
2018-03-26T05:09:30.761Z,99.90
2018-03-26T05:11:59.319Z,99.90
2018-03-26T05:14:27.774Z,99.90
2018-03-26T05:16:57.029Z,99.90
2018-03-26T05:19:25.405Z,99.90
2018-03-26T05:21:54.560Z,99.90
2018-03-26T05:24:24.821Z,99.90
2018-03-26T05:26:53.865Z,99.90
2018-03-26T05:29:22.220Z,99.90
2018-03-26T05:31:51.597Z,99.90
2018-03-26T05:34:19.953Z,99.90
2018-03-26T05:36:53.062Z,99.90
2018-03-26T05:39:21.430Z,99.90
2018-03-26T05:41:50.558Z,99.90
2018-03-26T05:44:20.001Z,99.90
2018-03-26T05:46:48.368Z,99.90
2018-03-26T05:49:16.743Z,99.90
2018-03-26T05:51:48.288Z,99.90
2018-03-26T05:54:16.661Z,99.90
2018-03-26T05:56:44.991Z,99.90
2018-03-26T05:59:14.645Z,99.90
2018-03-26T06:01:43.770Z,99.90
2018-03-26T06:04:12.097Z,99.90
2018-03-26T06:06:41.352Z,99.90
2018-03-26T06:09:09.690Z,99.90
2018-03-26T06:11:38.031Z,99.90
2018-03-26T06:14:07.730Z,99.90
2018-03-26T06:16:48.020Z,99.90
2018-03-26T06:19:17.611Z,99.90
2018-03-26T06:21:45.958Z,99.90
2018-03-26T06:24:14.319Z,99.90
2018-03-26T06:26:43.865Z,99.90
2018-03-26T06:29:12.198Z,99.90
2018-03-26T06:31:41.430Z,99.90
2018-03-26T06:34:11.549Z,99.90
2018-03-26T06:39:50.466Z,99.90
2018-03-26T06:42:18.755Z,99.90
2018-03-26T06:44:47.089Z,99.90
2018-03-26T06:47:16.223Z,99.90
2018-03-26T06:49:45.331Z,99.90
2018-03-26T06:52:14.732Z,99.90
2018-03-26T06:54:44.797Z,99.90
2018-03-26T06:57:13.069Z,99.90
2018-03-26T06:59:41.381Z,99.90
2018-03-26T07:02:10.696Z,99.90
2018-03-26T07:04:38.995Z,99.90
2018-03-26T07:07:08.082Z,99.90
2018-03-26T07:09:37.695Z,99.90
2018-03-26T07:12:06.033Z,99.90
2018-03-26T07:14:34.370Z,99.90
2018-03-26T07:17:04.264Z,99.90
2018-03-26T07:19:32.572Z,99.90
2018-03-26T07:22:01.815Z,99.90
2018-03-26T07:24:31.157Z,99.90
2018-03-26T07:26:59.468Z,99.90
2018-03-26T07:29:28.561Z,99.90
2018-03-26T07:31:58.695Z,99.90
2018-03-26T07:34:26.991Z,99.90
2018-03-26T07:36:55.273Z,99.90
2018-03-26T07:39:24.831Z,99.90
2018-03-26T07:41:53.137Z,99.90
2018-03-26T07:44:22.227Z,99.90
2018-03-26T07:46:51.342Z,99.90
2018-03-26T07:49:19.648Z,99.90
2018-03-26T07:51:47.949Z,99.90
2018-03-26T07:54:18.740Z,99.90
2018-03-26T07:56:47.795Z,99.90
2018-03-26T07:59:16.069Z,99.90
2018-03-26T08:01:44.800Z,99.90
2018-03-26T08:04:13.118Z,99.90
2018-03-26T08:06:41.424Z,99.90
2018-03-26T08:09:10.962Z,99.90
2018-03-26T08:11:39.296Z,99.90
2018-03-26T08:14:07.586Z,99.90
2018-03-26T08:16:36.471Z,99.90
2018-03-26T08:19:04.744Z,99.90
2018-03-26T08:21:33.047Z,99.90
2018-03-26T08:24:02.160Z,99.90
2018-03-26T08:26:30.447Z,99.90
2018-03-26T08:28:58.745Z,99.90
2018-03-26T08:31:28.350Z,99.90
2018-03-26T08:33:56.663Z,99.90
2018-03-26T08:36:25.738Z,99.90
2018-03-26T08:38:55.022Z,99.90
2018-03-26T08:41:23.369Z,99.90
2018-03-26T08:43:51.685Z,99.90
2018-03-26T08:46:20.957Z,99.90
2018-03-26T08:48:49.255Z,99.90
2018-03-26T08:51:17.697Z,99.90
2018-03-26T08:53:46.948Z,99.90
2018-03-26T08:56:17.003Z,99.90
2018-03-26T08:58:45.303Z,99.90
2018-03-26T09:01:14.912Z,99.90
2018-03-26T09:03:43.220Z,99.90
2018-03-26T09:06:11.695Z,99.90
2018-03-26T09:08:40.838Z,99.90
2018-03-26T09:11:09.165Z,99.90
2018-03-26T09:13:37.494Z,99.90
2018-03-26T09:16:07.244Z,99.90
2018-03-26T09:18:35.539Z,99.90
2018-03-26T09:21:04.613Z,99.90
2018-03-26T09:23:34.243Z,99.90
2018-03-26T09:26:02.560Z,99.90
2018-03-26T09:28:30.891Z,99.90
2018-03-26T09:30:59.209Z,99.90
2018-03-26T09:33:28.708Z,99.90
2018-03-26T09:35:57.022Z,99.90
2018-03-26T09:38:25.344Z,99.90
2018-03-26T09:40:54.784Z,99.90
2018-03-26T09:43:23.878Z,99.90
2018-03-26T09:45:52.238Z,99.90
2018-03-26T09:48:21.590Z,99.90
2018-03-26T09:50:50.437Z,99.90
2018-03-26T09:53:19.559Z,99.90
2018-03-26T09:55:48.640Z,99.90
2018-03-26T09:58:18.786Z,99.90
2018-03-26T10:00:48.672Z,99.90
2018-03-26T10:03:16.984Z,99.90
2018-03-26T10:05:47.099Z,98.30
2018-03-26T10:08:15.436Z,98.30
2018-03-26T10:10:43.735Z,96.70
2018-03-26T10:13:13.156Z,99.70
2018-03-26T10:15:41.461Z,95.80
2018-03-26T10:18:10.541Z,99.80
2018-03-26T10:20:39.320Z,99.90
2018-03-26T10:23:07.672Z,99.90
2018-03-26T10:25:35.985Z,99.80
2018-03-26T10:28:05.102Z,99.90
2018-03-26T10:30:35.353Z,99.90
2018-03-26T10:33:03.699Z,99.90
2018-03-26T10:35:32.005Z,99.90
2018-03-26T10:38:02.129Z,93.80
2018-03-26T10:40:31.474Z,93.90
2018-03-26T10:42:59.791Z,93.80
2018-03-26T10:45:29.159Z,91.60
2018-03-26T10:47:57.455Z,91.70
2018-03-26T10:50:25.756Z,91.40
2018-03-26T10:52:55.168Z,92.00
2018-03-26T10:55:23.453Z,92.70
2018-03-26T10:57:51.762Z,93.40
2018-03-26T11:00:22.948Z,94.80
2018-03-26T11:02:51.981Z,97.50
2018-03-26T11:05:21.056Z,98.40
2018-03-26T11:07:50.615Z,98.80
2018-03-26T11:10:19.691Z,99.90
2018-03-26T11:12:47.991Z,99.90
2018-03-26T11:15:18.416Z,99.90
2018-03-26T11:17:46.736Z,99.90
2018-03-26T11:20:15.028Z,99.90
2018-03-26T11:22:44.666Z,99.90
2018-03-26T11:25:12.971Z,99.90
2018-03-26T11:27:42.033Z,99.90
2018-03-26T11:30:11.533Z,99.90
2018-03-26T11:32:39.837Z,99.90
2018-03-26T11:35:08.157Z,99.90
2018-03-26T11:37:38.661Z,99.90
2018-03-26T11:40:06.975Z,99.90
2018-03-26T11:42:35.278Z,99.90
2018-03-26T11:45:04.798Z,99.90
2018-03-26T11:47:33.893Z,99.90
2018-03-26T11:50:02.301Z,99.90
2018-03-26T11:52:31.722Z,99.90
2018-03-26T11:55:00.024Z,98.40
2018-03-26T11:57:29.079Z,97.10
2018-03-26T11:59:58.638Z,97.10
2018-03-26T12:02:29.663Z,96.60
2018-03-26T12:04:58.684Z,96.50
2018-03-26T12:07:27.013Z,96.40
2018-03-26T12:09:55.328Z,95.40
2018-03-26T12:12:25.057Z,92.10
2018-03-26T12:14:54.114Z,96.30
2018-03-26T12:17:23.179Z,99.90
2018-03-26T12:20:04.271Z,99.90
2018-03-26T12:22:32.579Z,99.90
2018-03-26T12:25:16.012Z,99.90
2018-03-26T12:27:56.848Z,99.90
2018-03-26T12:30:27.420Z,99.90
2018-03-26T12:32:55.737Z,99.90
2018-03-26T12:35:36.523Z,99.90
2018-03-26T12:38:04.806Z,99.90
2018-03-26T12:40:45.839Z,99.90
2018-03-26T12:43:14.169Z,99.90
2018-03-26T12:45:55.433Z,99.90
2018-03-26T12:48:23.725Z,99.90
2018-03-26T12:51:03.948Z,99.90
2018-03-26T12:53:33.341Z,99.90
2018-03-26T12:56:02.423Z,99.90
2018-03-26T12:58:52.387Z,99.90
2018-03-26T13:01:33.512Z,99.90
2018-03-26T13:04:01.809Z,99.90
2018-03-26T13:06:32.986Z,99.90
2018-03-26T13:09:01.282Z,99.90
2018-03-26T13:11:29.601Z,99.90
2018-03-26T13:13:59.051Z,99.90
2018-03-26T13:16:27.351Z,99.90
2018-03-26T13:18:56.435Z,99.90
2018-03-26T13:21:25.670Z,99.90
2018-03-26T13:23:54.728Z,99.90
2018-03-26T13:26:23.029Z,99.90
2018-03-26T13:28:52.332Z,99.90
2018-03-26T13:31:20.646Z,99.90
2018-03-26T13:33:48.985Z,99.90
2018-03-26T13:36:18.400Z,99.90
2018-03-26T13:38:47.490Z,99.90
2018-03-26T13:41:15.805Z,99.90
2018-03-26T13:43:45.281Z,99.90
2018-03-26T13:46:13.591Z,99.90
2018-03-26T13:48:42.689Z,99.90
2018-03-26T13:51:12.690Z,99.90
2018-03-26T13:53:41.813Z,99.90
2018-03-26T13:56:10.112Z,99.90
2018-03-26T13:58:39.505Z,99.90
2018-03-26T14:01:07.831Z,99.90
2018-03-26T14:03:36.116Z,99.90
2018-03-26T14:06:04.441Z,99.90
2018-03-26T14:08:46.520Z,99.90
2018-03-26T14:11:29.225Z,99.90
2018-03-26T14:14:10.012Z,99.90
2018-03-26T14:16:50.238Z,99.90
2018-03-26T14:19:19.584Z,99.90
2018-03-26T14:21:47.881Z,99.90
2018-03-26T14:24:16.203Z,99.90
2018-03-26T14:26:45.639Z,99.90
2018-03-26T14:29:14.698Z,99.90
2018-03-26T14:31:43.016Z,99.90
2018-03-26T14:34:13.668Z,99.90
2018-03-26T14:36:41.998Z,99.90
2018-03-26T14:39:10.404Z,99.90
2018-03-26T14:41:39.572Z,99.90
2018-03-26T14:44:07.910Z,99.90
2018-03-26T14:46:36.244Z,99.90
2018-03-26T14:49:05.867Z,99.90
2018-03-26T14:51:34.285Z,99.90
2018-03-26T14:54:03.388Z,99.90
2018-03-26T14:56:32.899Z,99.90
2018-03-26T14:59:01.241Z,99.90
2018-03-26T15:01:29.526Z,99.90
2018-03-26T15:04:01.435Z,99.90
2018-03-26T15:06:29.760Z,99.90
2018-03-26T15:08:58.075Z,99.90
2018-03-26T15:11:30.645Z,99.90
2018-03-26T15:13:59.028Z,99.90
2018-03-26T15:16:27.316Z,99.90
2018-03-26T15:18:56.627Z,99.90
2018-03-26T15:21:24.931Z,99.90
2018-03-26T15:23:53.251Z,99.90
2018-03-26T15:26:22.704Z,99.90
2018-03-26T15:28:51.802Z,99.90
2018-03-26T15:31:20.876Z,99.90
2018-03-26T15:33:50.421Z,99.90
2018-03-26T15:36:19.477Z,99.90
2018-03-26T15:38:47.812Z,99.90
2018-03-26T15:42:01.157Z,99.90
2018-03-26T15:48:11.074Z,99.90
2018-03-26T17:27:00.926Z,99.90
2018-03-26T17:29:29.245Z,99.90
2018-03-26T17:31:57.567Z,99.90
2018-03-26T17:34:26.921Z,99.90
2018-03-26T17:36:56.099Z,99.90
2018-03-26T17:39:24.409Z,99.90
2018-03-26T17:41:53.816Z,99.90
2018-03-26T17:44:22.885Z,99.90
2018-03-26T17:46:51.186Z,99.90
2018-03-26T17:49:21.496Z,99.90
2018-03-26T17:51:49.828Z,99.90
2018-03-26T17:54:18.202Z,99.90
2018-03-26T17:56:48.214Z,99.90
2018-03-26T17:59:16.520Z,99.90
2018-03-26T18:01:44.835Z,99.90
2018-03-26T18:04:14.259Z,99.90
2018-03-26T18:06:43.339Z,99.90
2018-03-26T18:09:11.639Z,99.90
2018-03-26T18:11:40.732Z,99.90
2018-03-26T18:14:10.273Z,99.90
2018-03-26T18:16:38.590Z,99.90
2018-03-26T18:19:06.968Z,99.90
2018-03-26T18:21:36.334Z,99.90
2018-03-26T18:24:05.385Z,99.90
2018-03-26T18:26:35.671Z,99.90
2018-03-26T18:29:04.735Z,99.90
2018-03-26T18:31:33.039Z,99.90
2018-03-26T18:34:02.128Z,99.90
2018-03-26T18:36:31.254Z,99.90
2018-03-26T18:38:59.558Z,99.90
2018-03-26T18:41:27.877Z,99.90
2018-03-26T18:43:56.573Z,99.90
2018-03-26T18:46:24.873Z,99.90
2018-03-26T18:48:53.211Z,99.90
2018-03-26T18:51:22.576Z,99.90
2018-03-26T18:53:50.890Z,99.90
2018-03-26T18:56:19.173Z,99.90
2018-03-26T18:58:47.906Z,99.90
2018-03-26T19:01:16.187Z,99.90
2018-03-26T19:03:45.269Z,99.90
2018-03-26T19:06:14.225Z,99.90
2018-03-26T19:08:43.319Z,99.90
2018-03-26T19:11:11.647Z,99.90
2018-03-26T19:13:40.943Z,99.90
2018-03-26T19:16:09.264Z,99.90
2018-03-26T19:18:38.320Z,99.90
2018-03-26T19:21:06.657Z,99.90
2018-03-26T19:23:36.039Z,99.90
2018-03-26T19:26:04.362Z,99.90
2018-03-26T19:28:34.199Z,99.90
2018-03-26T19:31:02.507Z,99.90
2018-03-26T19:33:35.325Z,99.90
2018-03-26T19:36:03.746Z,99.90
2018-03-26T19:38:32.169Z,99.90
2018-03-26T19:41:01.851Z,99.90
2018-03-26T19:43:31.016Z,99.90
2018-03-26T19:46:00.142Z,99.90
2018-03-26T19:48:29.236Z,99.90
2018-03-26T19:50:57.796Z,99.90
2018-03-26T19:53:27.043Z,99.90
2018-03-26T19:55:55.776Z,99.90
2018-03-26T19:58:24.222Z,99.90
2018-03-26T20:00:52.616Z,99.90
2018-03-26T20:03:22.350Z,99.90
2018-03-26T20:05:51.461Z,99.90
2018-03-26T20:08:20.532Z,99.90
2018-03-26T20:10:49.565Z,99.90
2018-03-26T20:13:18.637Z,99.90
2018-03-26T20:15:46.977Z,99.90
2018-03-26T20:18:16.017Z,99.90
2018-03-26T20:20:45.084Z,99.90
2018-03-26T20:23:13.449Z,99.90
2018-03-26T20:25:43.614Z,99.90
2018-03-26T20:28:11.902Z,99.90
2018-03-26T20:30:41.940Z,99.90
2018-03-26T20:33:12.094Z,99.90
2018-03-26T20:35:40.390Z,99.90
2018-03-26T20:38:08.740Z,99.90
2018-03-26T20:40:37.942Z,99.90
2018-03-26T20:43:06.597Z,99.90
2018-03-26T20:45:34.988Z,99.90
2018-03-26T20:48:05.132Z,99.90
2018-03-26T20:50:38.327Z,99.90
2018-03-26T20:53:07.798Z,99.90
2018-03-26T20:55:36.094Z,99.90
2018-03-26T20:58:04.399Z,99.90
2018-03-26T21:00:34.276Z,99.90
2018-03-26T21:03:03.836Z,99.90
2018-03-26T21:05:32.171Z,99.90
2018-03-26T21:08:00.453Z,99.90
2018-03-26T21:10:29.566Z,99.90
2018-03-26T21:12:58.561Z,99.90
2018-03-26T21:15:26.871Z,99.90
2018-03-26T21:17:56.751Z,99.90
2018-03-26T21:20:25.098Z,99.90
2018-03-26T21:22:53.678Z,99.90
2018-03-26T21:25:22.981Z,99.90
2018-03-26T21:27:52.138Z,99.90
2018-03-26T21:30:24.063Z,99.90
2018-03-26T21:32:54.358Z,99.90
2018-03-26T21:35:25.607Z,99.90
2018-03-26T21:37:54.680Z,99.90
2018-03-26T21:40:23.262Z,99.90
2018-03-26T21:42:53.714Z,99.90
2018-03-26T21:45:22.997Z,99.90
2018-03-26T21:47:51.725Z,99.90
2018-03-26T21:50:21.371Z,99.90
2018-03-26T21:52:51.372Z,99.90
2018-03-26T21:55:19.761Z,99.90
2018-03-26T21:57:48.697Z,99.90
2018-03-26T22:00:17.890Z,99.90
2018-03-26T22:02:46.213Z,99.90
2018-03-26T22:05:15.668Z,99.90
2018-03-26T22:07:43.973Z,99.90
2018-03-26T22:10:12.310Z,99.90
2018-03-26T22:12:41.643Z,99.90
2018-03-26T22:15:10.041Z,99.90
2018-03-26T22:17:39.250Z,99.90
2018-03-26T22:20:09.104Z,99.90
2018-03-26T22:22:37.412Z,99.90
2018-03-26T22:25:05.717Z,99.90
2018-03-26T22:27:34.040Z,99.90
2018-03-26T22:30:04.361Z,99.90
2018-03-26T22:32:33.438Z,99.90
2018-03-26T22:35:03.229Z,99.90
2018-03-26T22:37:31.933Z,99.90
2018-03-26T22:40:00.270Z,99.90
2018-03-26T22:42:28.586Z,99.90
2018-03-26T22:44:57.624Z,99.90
2018-03-26T22:47:26.700Z,99.90
2018-03-26T22:49:55.086Z,99.90
2018-03-26T22:52:24.520Z,99.90
2018-03-26T22:54:53.577Z,99.90
2018-03-26T22:57:21.878Z,99.90
2018-03-26T22:59:50.900Z,99.90
2018-03-26T23:02:19.227Z,99.90
2018-03-26T23:04:47.537Z,99.90
2018-03-26T23:07:16.181Z,99.90
2018-03-26T23:09:44.748Z,99.90
2018-03-26T23:12:13.805Z,99.90
2018-03-26T23:14:42.682Z,99.90
2018-03-26T23:17:12.074Z,99.90
2018-03-26T23:19:40.344Z,99.90
2018-03-26T23:22:08.644Z,99.90
2018-03-26T23:24:37.501Z,99.90
2018-03-26T23:27:06.565Z,99.90
2018-03-26T23:29:34.865Z,99.90
2018-03-26T23:32:04.314Z,99.90
2018-03-26T23:34:32.603Z,99.90
2018-03-26T23:37:02.435Z,99.90
2018-03-26T23:39:31.636Z,99.90
2018-03-26T23:41:59.923Z,99.90
2018-03-26T23:44:28.223Z,99.90
2018-03-26T23:46:57.642Z,99.90
2018-03-26T23:49:26.014Z,99.90
2018-03-26T23:51:54.320Z,99.90
2018-03-26T23:54:24.537Z,99.90
2018-03-26T23:56:52.838Z,99.90
2018-03-26T23:59:21.904Z,99.90
